createdAt,value
2018-10-01T00:01:58.959Z,7.50
2018-10-01T00:04:27.043Z,5.28
2018-10-01T00:06:55.166Z,6.90
2018-10-01T00:09:23.238Z,6.20
2018-10-01T00:11:51.360Z,7.78
2018-10-01T00:14:19.462Z,8.88
2018-10-01T00:16:47.644Z,4.35
2018-10-01T00:19:21.074Z,6.33
2018-10-01T00:21:54.550Z,6.05
2018-10-01T00:24:23.030Z,3.55
2018-10-01T00:26:51.219Z,8.23
2018-10-01T00:29:19.398Z,8.88
2018-10-01T00:31:47.485Z,6.83
2018-10-01T00:34:15.857Z,6.33
2018-10-01T00:36:44.453Z,7.62
2018-10-01T00:39:12.610Z,5.47
2018-10-01T00:41:41.966Z,6.15
2018-10-01T00:44:10.142Z,6.05
2018-10-01T00:46:38.483Z,7.53
2018-10-01T00:49:06.761Z,6.78
2018-10-01T00:51:35.846Z,7.10
2018-10-01T00:54:03.962Z,6.67
2018-10-01T00:56:32.043Z,5.50
2018-10-01T00:59:00.390Z,7.50
2018-10-01T01:01:29.473Z,7.37
2018-10-01T01:03:57.581Z,4.78
2018-10-01T01:06:25.650Z,10.55
2018-10-01T01:08:53.771Z,5.20
2018-10-01T01:11:22.877Z,5.95
2018-10-01T01:13:50.997Z,5.92
2018-10-01T01:16:19.177Z,8.70
2018-10-01T01:18:47.278Z,7.22
2018-10-01T01:21:15.964Z,7.80
2018-10-01T01:23:44.102Z,10.20
2018-10-01T01:26:12.294Z,7.28
2018-10-01T01:28:40.413Z,9.30
2018-10-01T01:31:08.590Z,6.62
2018-10-01T01:33:36.689Z,4.85
2018-10-01T01:36:04.886Z,6.67
2018-10-01T01:38:33.082Z,7.40
2018-10-01T01:41:01.174Z,8.08
2018-10-01T01:43:29.280Z,7.72
2018-10-01T01:45:57.379Z,4.65
2018-10-01T01:48:25.490Z,7.87
2018-10-01T01:50:53.686Z,11.33
2018-10-01T01:53:21.890Z,13.83
2018-10-01T01:55:50.073Z,13.05
2018-10-01T01:58:18.177Z,14.10
2018-10-01T02:00:46.288Z,9.00
2018-10-01T02:03:14.471Z,12.33
2018-10-01T02:05:42.555Z,5.87
2018-10-01T02:08:10.680Z,5.00
2018-10-01T02:10:38.885Z,7.53
2018-10-01T02:13:07.070Z,12.88
2018-10-01T02:15:35.167Z,14.13
2018-10-01T02:18:03.362Z,11.83
2018-10-01T02:20:31.455Z,10.75
2018-10-01T02:22:59.554Z,13.65
2018-10-01T02:25:27.644Z,7.37
2018-10-01T02:27:55.771Z,11.80
2018-10-01T02:30:23.957Z,11.15
2018-10-01T02:32:52.058Z,13.50
2018-10-01T02:35:20.254Z,14.25
2018-10-01T02:37:48.453Z,16.60
2018-10-01T02:40:16.570Z,13.32
2018-10-01T02:42:44.738Z,15.43
2018-10-01T02:45:12.850Z,15.13
2018-10-01T02:47:41.081Z,12.33
2018-10-01T02:50:09.240Z,13.80
2018-10-01T02:52:42.913Z,22.45
2018-10-01T02:55:11.066Z,12.88
2018-10-01T02:57:39.154Z,13.72
2018-10-01T03:00:08.675Z,14.10
2018-10-01T03:02:37.118Z,16.27
2018-10-01T03:05:05.317Z,18.77
2018-10-01T03:07:33.526Z,13.58
2018-10-01T03:10:01.735Z,12.30
2018-10-01T03:12:29.906Z,13.28
2018-10-01T03:14:58.098Z,12.55
2018-10-01T03:17:26.199Z,8.98
2018-10-01T03:19:54.298Z,12.35
2018-10-01T03:22:22.481Z,14.30
2018-10-01T03:24:50.593Z,11.55
2018-10-01T03:27:18.782Z,16.05
2018-10-01T03:29:46.888Z,13.85
2018-10-01T03:32:15.288Z,23.40
2018-10-01T03:34:43.390Z,14.33
2018-10-01T03:37:11.596Z,20.65
2018-10-01T03:39:39.786Z,17.27
2018-10-01T03:42:07.986Z,22.85
2018-10-01T03:44:36.126Z,18.25
2018-10-01T03:47:04.282Z,18.98
2018-10-01T03:49:32.398Z,20.25
2018-10-01T03:52:00.594Z,23.95
2018-10-01T03:54:28.781Z,26.93
2018-10-01T03:56:56.886Z,28.77
2018-10-01T03:59:25.078Z,19.90
2018-10-01T04:01:53.166Z,20.88
2018-10-01T04:04:21.293Z,21.95
2018-10-01T04:06:49.470Z,20.27
2018-10-01T04:09:17.581Z,20.72
2018-10-01T04:11:45.762Z,25.27
2018-10-01T04:14:13.872Z,22.95
2018-10-01T04:16:42.062Z,23.25
2018-10-01T04:19:10.158Z,21.23
2018-10-01T04:21:39.306Z,22.70
2018-10-01T04:24:07.483Z,21.37
2018-10-01T04:26:35.574Z,20.15
2018-10-01T04:29:03.690Z,21.15
2018-10-01T04:31:31.866Z,19.23
2018-10-01T04:33:59.978Z,18.12
2018-10-01T04:36:28.177Z,17.95
2018-10-01T04:38:56.274Z,18.00
2018-10-01T04:41:25.406Z,18.42
2018-10-01T04:43:53.614Z,19.70
2018-10-01T04:46:21.790Z,21.80
2018-10-01T04:48:49.906Z,24.50
2018-10-01T04:51:19.006Z,25.77
2018-10-01T04:53:47.114Z,25.12
2018-10-01T04:56:15.308Z,24.07
2018-10-01T04:58:43.527Z,28.30
2018-10-01T05:01:11.698Z,25.80
2018-10-01T05:03:39.809Z,25.00
2018-10-01T05:06:08.152Z,26.02
2018-10-01T05:08:36.330Z,24.87
2018-10-01T05:11:04.731Z,25.40
2018-10-01T05:13:32.903Z,27.58
2018-10-01T05:16:01.004Z,20.15
2018-10-01T05:18:29.098Z,32.05
2018-10-01T05:20:57.207Z,27.17
2018-10-01T05:23:25.398Z,28.52
2018-10-01T05:25:53.504Z,28.65
2018-10-01T05:28:21.696Z,25.32
2018-10-01T05:30:49.906Z,27.15
2018-10-01T05:33:18.111Z,24.12
2018-10-01T05:35:46.310Z,32.65
2018-10-01T05:38:14.497Z,23.20
2018-10-01T05:40:42.686Z,24.30
2018-10-01T05:43:11.014Z,30.52
2018-10-01T05:45:39.215Z,26.65
2018-10-01T05:48:07.386Z,30.08
2018-10-01T05:50:35.508Z,31.68
2018-10-01T05:53:03.726Z,35.52
2018-10-01T05:55:31.918Z,29.85
2018-10-01T05:58:00.155Z,28.27
2018-10-01T06:00:28.218Z,35.08
2018-10-01T06:02:56.305Z,28.57
2018-10-01T06:05:24.497Z,31.25
2018-10-01T06:07:52.702Z,36.65
2018-10-01T06:10:20.897Z,35.28
2018-10-01T06:12:48.985Z,27.07
2018-10-01T06:15:17.142Z,23.15
2018-10-01T06:17:45.399Z,26.60
2018-10-01T06:20:13.595Z,33.75
2018-10-01T06:22:41.775Z,32.55
2018-10-01T06:25:09.900Z,30.43
2018-10-01T06:27:38.079Z,36.17
2018-10-01T06:30:06.286Z,32.30
2018-10-01T06:32:34.503Z,34.43
2018-10-01T06:35:02.674Z,38.83
2018-10-01T06:37:30.766Z,37.55
2018-10-01T06:39:58.881Z,38.48
2018-10-01T06:42:27.068Z,32.38
2018-10-01T06:44:55.286Z,36.83
2018-10-01T06:47:23.474Z,37.40
2018-10-01T06:49:51.687Z,36.05
2018-10-01T06:52:19.903Z,39.48
2018-10-01T06:54:48.078Z,32.48
2018-10-01T06:57:16.374Z,40.45
2018-10-01T06:59:44.503Z,34.80
2018-10-01T07:02:12.691Z,33.05
2018-10-01T07:04:40.885Z,35.83
2018-10-01T07:07:09.254Z,36.25
2018-10-01T07:09:37.389Z,33.35
2018-10-01T07:12:05.573Z,57.45
2018-10-01T07:14:33.685Z,37.25
2018-10-01T07:17:01.958Z,36.68
2018-10-01T07:19:29.982Z,34.55
2018-10-01T07:21:58.171Z,33.53
2018-10-01T07:24:26.274Z,28.32
2018-10-01T07:26:54.467Z,36.48
2018-10-01T07:29:22.574Z,32.05
2018-10-01T07:31:50.782Z,36.65
2018-10-01T07:34:18.986Z,31.17
2018-10-01T07:36:47.174Z,30.43
2018-10-01T07:39:15.374Z,32.03
2018-10-01T07:41:43.590Z,38.02
2018-10-01T07:44:11.794Z,34.00
2018-10-01T07:46:39.982Z,34.30
2018-10-01T07:49:08.185Z,25.20
2018-10-01T07:51:36.386Z,31.90
2018-10-01T07:54:04.580Z,26.30
2018-10-01T07:56:32.796Z,25.65
2018-10-01T07:59:00.982Z,29.95
2018-10-01T08:01:29.183Z,28.45
2018-10-01T08:03:57.378Z,25.85
2018-10-01T08:06:25.582Z,26.68
2018-10-01T08:08:53.794Z,25.35
2018-10-01T08:11:21.993Z,26.85
2018-10-01T08:13:50.185Z,21.37
2018-10-01T08:16:18.373Z,23.95
2018-10-01T08:18:46.576Z,26.12
2018-10-01T08:21:14.843Z,20.20
2018-10-01T08:23:43.027Z,23.40
2018-10-01T08:26:11.132Z,22.67
2018-10-01T08:28:39.278Z,21.23
2018-10-01T08:31:07.373Z,23.20
2018-10-01T08:33:35.562Z,23.42
2018-10-01T08:36:03.765Z,19.05
2018-10-01T08:38:32.030Z,8.58
2018-10-01T08:41:00.245Z,7.92
2018-10-01T08:43:28.362Z,15.95
2018-10-01T08:45:56.557Z,12.65
2018-10-01T08:48:26.012Z,13.35
2018-10-01T08:50:59.850Z,13.08
2018-10-01T08:53:38.466Z,16.20
2018-10-01T08:56:06.695Z,16.82
2018-10-01T08:58:34.765Z,14.95
2018-10-01T09:01:02.899Z,13.78
2018-10-01T09:03:31.061Z,15.45
2018-10-01T09:05:59.290Z,12.78
2018-10-01T09:08:27.478Z,15.25
2018-10-01T09:10:55.588Z,16.05
2018-10-01T09:13:23.662Z,9.18
2018-10-01T09:15:51.891Z,14.43
2018-10-01T09:18:20.060Z,19.48
2018-10-01T09:20:48.170Z,16.93
2018-10-01T09:23:16.390Z,13.32
2018-10-01T09:25:44.489Z,11.90
2018-10-01T09:28:12.651Z,7.90
2018-10-01T09:30:40.950Z,9.23
2018-10-01T09:33:09.058Z,10.43
2018-10-01T09:35:37.327Z,15.88
2018-10-01T09:38:05.713Z,13.05
2018-10-01T09:40:33.914Z,8.30
2018-10-01T09:43:01.979Z,10.25
2018-10-01T09:45:30.152Z,7.83
2018-10-01T09:47:58.356Z,9.15
2018-10-01T09:50:26.505Z,3.40
2018-10-01T09:52:54.658Z,9.00
2018-10-01T09:55:22.846Z,8.93
2018-10-01T09:57:50.951Z,10.43
2018-10-01T10:00:24.802Z,8.28
2018-10-01T10:02:52.982Z,9.40
2018-10-01T10:05:21.174Z,6.97
2018-10-01T10:07:49.279Z,5.92
2018-10-01T10:10:18.412Z,5.85
2018-10-01T10:12:46.501Z,10.23
2018-10-01T10:15:14.687Z,7.42
2018-10-01T10:17:42.905Z,9.85
2018-10-01T10:20:11.329Z,6.37
2018-10-01T10:22:39.566Z,9.80
2018-10-01T10:25:07.682Z,6.00
2018-10-01T10:27:35.807Z,4.58
2018-10-01T10:30:04.113Z,5.80
2018-10-01T10:32:32.378Z,6.42
2018-10-01T10:35:00.506Z,7.50
2018-10-01T10:37:28.761Z,7.80
2018-10-01T10:39:56.902Z,11.70
2018-10-01T10:42:24.987Z,3.95
2018-10-01T10:44:53.090Z,7.47
2018-10-01T10:47:21.223Z,5.40
2018-10-01T10:49:49.390Z,7.72
2018-10-01T10:52:17.501Z,9.65
2018-10-01T10:54:45.681Z,4.17
2018-10-01T10:57:13.797Z,7.37
2018-10-01T10:59:42.108Z,5.62
2018-10-01T11:02:10.308Z,5.45
2018-10-01T11:04:38.384Z,9.93
2018-10-01T11:07:06.497Z,5.37
2018-10-01T11:09:34.573Z,7.28
2018-10-01T11:12:02.715Z,3.87
2018-10-01T11:14:30.923Z,3.42
2018-10-01T11:16:58.985Z,6.15
2018-10-01T11:19:27.100Z,5.72
2018-10-01T11:21:55.454Z,8.25
2018-10-01T11:24:23.498Z,8.05
2018-10-01T11:26:51.765Z,6.90
2018-10-01T11:29:19.910Z,2.60
2018-10-01T11:31:48.221Z,10.90
2018-10-01T11:34:16.327Z,3.37
2018-10-01T11:36:44.558Z,4.35
2018-10-01T11:39:13.606Z,6.78
2018-10-01T11:41:41.738Z,6.10
2018-10-01T11:44:09.906Z,6.17
2018-10-01T11:46:38.223Z,3.08
2018-10-01T11:49:06.520Z,7.67
2018-10-01T11:51:34.757Z,4.67
2018-10-01T11:54:02.807Z,3.58
2018-10-01T11:56:31.139Z,4.03
2018-10-01T11:58:59.321Z,2.15
2018-10-01T12:01:27.523Z,4.58
2018-10-01T12:03:57.312Z,1.47
2018-10-01T12:06:25.451Z,0.80
2018-10-01T12:08:53.554Z,4.20
2018-10-01T12:11:21.657Z,1.55
2018-10-01T12:13:49.912Z,5.22
2018-10-01T12:16:18.035Z,2.60
2018-10-01T12:18:46.147Z,1.42
2018-10-01T12:21:15.125Z,3.25
2018-10-01T12:23:44.249Z,3.42
2018-10-01T12:26:12.407Z,1.75
2018-10-01T12:28:40.584Z,1.05
2018-10-01T12:31:08.799Z,4.97
2018-10-01T12:33:37.066Z,3.20
2018-10-01T12:36:05.259Z,5.08
2018-10-01T12:38:33.412Z,0.90
2018-10-01T12:41:01.577Z,1.25
2018-10-01T12:43:29.674Z,3.33
2018-10-01T12:45:57.871Z,1.92
2018-10-01T12:48:26.011Z,3.50
2018-10-01T12:50:54.611Z,2.47
2018-10-01T12:53:22.790Z,1.37
2018-10-01T12:55:50.898Z,1.82
2018-10-01T12:58:19.118Z,0.82
2018-10-01T13:00:47.498Z,3.60
2018-10-01T13:03:15.706Z,1.85
2018-10-01T13:05:43.807Z,5.97
2018-10-01T13:08:11.973Z,4.90
2018-10-01T13:10:40.174Z,2.92
2018-10-01T13:13:08.270Z,3.72
2018-10-01T13:15:36.469Z,1.67
2018-10-01T13:18:04.600Z,3.60
2018-10-01T13:20:33.706Z,3.17
2018-10-01T13:23:01.890Z,1.95
2018-10-01T13:25:30.105Z,1.50
2018-10-01T13:27:58.315Z,2.08
2018-10-01T13:30:26.536Z,3.40
2018-10-01T13:32:54.698Z,1.80
2018-10-01T13:35:22.883Z,2.47
2018-10-01T13:37:51.428Z,3.62
2018-10-01T13:40:19.595Z,1.55
2018-10-01T13:42:47.825Z,0.62
2018-10-01T13:45:15.898Z,2.27
2018-10-01T13:47:44.124Z,2.45
2018-10-01T13:50:12.283Z,2.12
2018-10-01T13:52:40.394Z,0.62
2018-10-01T13:55:08.588Z,1.42
2018-10-01T13:57:36.694Z,1.42
2018-10-01T14:00:05.150Z,2.60
2018-10-01T14:02:33.283Z,2.05
2018-10-01T14:05:01.386Z,1.98
2018-10-01T14:07:29.616Z,0.57
2018-10-01T14:09:57.682Z,2.62
2018-10-01T14:12:25.786Z,2.08
2018-10-01T14:14:53.970Z,2.45
2018-10-01T14:17:22.076Z,3.00
2018-10-01T14:19:50.255Z,4.60
2018-10-01T14:22:18.285Z,6.08
2018-10-01T14:24:46.555Z,3.45
2018-10-01T14:27:14.681Z,2.35
2018-10-01T14:29:42.901Z,1.27
2018-10-01T14:32:11.066Z,2.77
2018-10-01T14:34:39.219Z,2.58
2018-10-01T14:37:07.383Z,1.32
2018-10-01T14:39:35.558Z,0.90
2018-10-01T14:42:03.716Z,3.40
2018-10-01T14:44:32.295Z,1.20
2018-10-01T14:47:00.526Z,2.22
2018-10-01T14:49:28.897Z,4.25
2018-10-01T14:51:57.099Z,1.85
2018-10-01T14:54:25.343Z,0.42
2018-10-01T14:56:53.496Z,1.02
2018-10-01T14:59:21.590Z,1.05
2018-10-01T15:01:49.770Z,6.25
2018-10-01T15:04:17.914Z,1.27
2018-10-01T15:06:46.214Z,1.32
2018-10-01T15:09:14.366Z,0.50
2018-10-01T15:11:42.478Z,0.65
2018-10-01T15:14:10.666Z,0.68
2018-10-01T15:16:38.756Z,0.60
2018-10-01T15:19:06.879Z,2.95
2018-10-01T15:21:34.959Z,1.45
2018-10-01T15:24:03.081Z,1.40
2018-10-01T15:26:31.142Z,1.00
2018-10-01T15:28:59.269Z,2.00
2018-10-01T15:31:27.438Z,2.75
2018-10-01T15:33:55.529Z,0.40
2018-10-01T15:36:23.700Z,2.17
2018-10-01T15:38:51.851Z,1.37
2018-10-01T15:41:19.965Z,1.22
2018-10-01T15:43:48.050Z,2.00
2018-10-01T15:46:16.343Z,2.67
2018-10-01T15:48:44.490Z,0.30
2018-10-01T15:51:12.618Z,0.50
2018-10-01T15:53:40.743Z,0.50
2018-10-01T15:56:08.814Z,0.95
2018-10-01T15:58:36.935Z,2.27
2018-10-01T16:01:05.125Z,1.55
2018-10-01T16:03:33.223Z,3.58
2018-10-01T16:06:01.339Z,2.15
2018-10-01T16:08:29.514Z,3.70
2018-10-01T16:10:57.609Z,1.65
2018-10-01T16:13:25.715Z,1.62
2018-10-01T16:15:53.802Z,4.42
2018-10-01T16:18:21.923Z,0.93
2018-10-01T16:20:50.075Z,1.52
2018-10-01T16:23:18.164Z,1.47
2018-10-01T16:25:46.246Z,3.27
2018-10-01T16:28:14.527Z,4.05
2018-10-01T16:30:43.167Z,3.00
2018-10-01T16:33:11.254Z,4.75
2018-10-01T16:35:39.329Z,3.80
2018-10-01T16:38:07.415Z,3.20
2018-10-01T16:40:35.507Z,4.33
2018-10-01T16:43:03.582Z,2.47
2018-10-01T16:45:31.677Z,3.50
2018-10-01T16:47:59.759Z,6.37
2018-10-01T16:50:27.843Z,3.27
2018-10-01T16:52:55.930Z,8.95
2018-10-01T16:55:24.022Z,6.58
2018-10-01T16:57:52.178Z,3.35
2018-10-01T17:00:20.290Z,5.65
2018-10-01T17:02:48.422Z,5.28
2018-10-01T17:05:16.511Z,3.20
2018-10-01T17:07:44.601Z,7.00
2018-10-01T17:10:12.686Z,5.28
2018-10-01T17:12:40.819Z,8.05
2018-10-01T17:15:08.866Z,4.28
2018-10-01T17:17:36.937Z,5.75
2018-10-01T17:20:05.038Z,11.65
2018-10-01T17:22:33.150Z,7.85
2018-10-01T17:25:01.238Z,7.70
2018-10-01T17:27:29.342Z,11.18
2018-10-01T17:29:57.454Z,6.72
2018-10-01T17:32:25.642Z,6.42
2018-10-01T17:34:53.735Z,8.00
2018-10-01T17:37:21.857Z,5.97
2018-10-01T17:39:50.038Z,6.83
2018-10-01T17:42:18.158Z,9.33
2018-10-01T17:44:46.374Z,3.42
2018-10-01T17:47:14.536Z,7.50
2018-10-01T17:49:42.619Z,6.22
2018-10-01T17:52:10.730Z,9.95
2018-10-01T17:54:38.923Z,7.20
2018-10-01T17:57:07.028Z,7.28
2018-10-01T17:59:35.131Z,7.72
2018-10-01T18:02:03.219Z,8.98
2018-10-01T18:04:31.334Z,12.68
2018-10-01T18:06:59.525Z,3.85
2018-10-01T18:09:27.731Z,5.30
2018-10-01T18:11:55.981Z,4.17
2018-10-01T18:14:24.036Z,1.72
2018-10-01T18:16:52.214Z,5.30
2018-10-01T18:19:20.348Z,4.67
2018-10-01T18:21:48.549Z,4.90
2018-10-01T18:24:16.683Z,3.42
2018-10-01T18:26:44.866Z,5.40
2018-10-01T18:29:13.034Z,9.15
2018-10-01T18:31:41.207Z,2.80
2018-10-01T18:34:09.306Z,2.02
2018-10-01T18:36:37.547Z,4.08
2018-10-01T18:39:12.533Z,5.90
2018-10-01T18:41:40.699Z,3.50
2018-10-01T18:44:08.775Z,6.85
2018-10-01T18:46:36.950Z,2.52
2018-10-01T18:49:05.194Z,2.37
2018-10-01T18:51:33.359Z,4.53
2018-10-01T18:54:01.458Z,5.50
2018-10-01T18:56:29.562Z,5.03
2018-10-01T18:58:57.775Z,7.25
2018-10-01T19:01:25.956Z,5.53
2018-10-01T19:03:54.047Z,4.90
2018-10-01T19:06:22.331Z,7.70
2018-10-01T19:08:50.474Z,7.78
2018-10-01T19:11:18.679Z,10.75
2018-10-01T19:13:46.858Z,3.17
2018-10-01T19:16:15.155Z,6.50
2018-10-01T19:18:43.279Z,5.83
2018-10-01T19:21:11.486Z,5.37
2018-10-01T19:23:39.638Z,6.92
2018-10-01T19:26:07.956Z,6.92
2018-10-01T19:28:36.063Z,7.90
2018-10-01T19:31:04.258Z,7.22
2018-10-01T19:33:32.453Z,3.33
2018-10-01T19:36:00.740Z,14.33
2018-10-01T19:38:28.839Z,4.42
2018-10-01T19:40:56.942Z,5.45
2018-10-01T19:43:25.071Z,5.62
2018-10-01T19:45:53.142Z,5.17
2018-10-01T19:48:21.223Z,4.20
2018-10-01T19:50:49.337Z,3.37
2018-10-01T19:53:17.510Z,5.30
2018-10-01T19:55:45.849Z,5.65
2018-10-01T19:58:14.027Z,7.03
2018-10-01T20:00:42.193Z,5.25
2018-10-01T20:03:10.244Z,5.65
2018-10-01T20:05:38.338Z,2.98
2018-10-01T20:08:06.510Z,6.03
2018-10-01T20:10:34.611Z,2.67
2018-10-01T20:13:03.150Z,6.28
2018-10-01T20:15:31.366Z,5.35
2018-10-01T20:17:59.536Z,3.47
2018-10-01T20:20:27.636Z,4.25
2018-10-01T20:22:55.941Z,5.50
2018-10-01T20:25:24.137Z,7.78
2018-10-01T20:27:52.506Z,4.40
2018-10-01T20:30:20.551Z,2.70
2018-10-01T20:32:48.606Z,3.85
2018-10-01T20:35:16.913Z,5.92
2018-10-01T20:37:45.083Z,0.98
2018-10-01T20:40:13.210Z,5.25
2018-10-01T20:42:41.317Z,6.05
2018-10-01T20:45:09.553Z,3.45
2018-10-01T20:47:37.714Z,5.42
2018-10-01T20:50:05.941Z,4.15
2018-10-01T20:52:34.128Z,5.55
2018-10-01T20:55:02.370Z,7.95
2018-10-01T20:57:30.514Z,4.72
2018-10-01T20:59:58.610Z,3.55
2018-10-01T21:02:26.773Z,6.03
2018-10-01T21:04:54.799Z,5.90
2018-10-01T21:07:22.894Z,3.75
2018-10-01T21:09:51.002Z,4.58
2018-10-01T21:12:19.101Z,4.10
2018-10-01T21:14:47.200Z,4.17
2018-10-01T21:17:15.388Z,4.65
2018-10-01T21:19:43.614Z,7.65
2018-10-01T21:22:11.833Z,4.95
2018-10-01T21:24:39.987Z,4.08
2018-10-01T21:27:08.098Z,6.15
2018-10-01T21:29:36.282Z,3.27
2018-10-01T21:32:05.067Z,6.78
2018-10-01T21:34:33.200Z,4.00
2018-10-01T21:37:01.326Z,6.00
2018-10-01T21:40:09.686Z,7.75
2018-10-01T21:42:37.865Z,5.55
2018-10-01T21:45:06.494Z,6.83
2018-10-01T21:47:34.719Z,6.28
2018-10-01T21:50:03.026Z,4.47
2018-10-01T21:52:31.485Z,3.45
2018-10-01T21:55:00.007Z,14.73
2018-10-01T21:57:28.212Z,6.03
2018-10-01T21:59:56.369Z,4.92
2018-10-01T22:02:24.609Z,5.45
2018-10-01T22:04:52.766Z,2.00
2018-10-01T22:07:20.878Z,5.53
2018-10-01T22:09:49.387Z,4.28
2018-10-01T22:12:17.518Z,3.80
2018-10-01T22:14:45.885Z,3.42
2018-10-01T22:17:13.989Z,5.08
2018-10-01T22:19:42.114Z,9.78
2018-10-01T22:22:10.532Z,6.92
2018-10-01T22:24:38.685Z,3.50
2018-10-01T22:27:06.782Z,4.22
2018-10-01T22:29:34.894Z,2.33
2018-10-01T22:32:03.096Z,7.50
2018-10-01T22:34:31.198Z,4.95
2018-10-01T22:36:59.382Z,8.98
2018-10-01T22:39:27.473Z,6.22
2018-10-01T22:41:55.585Z,4.47
2018-10-01T22:44:23.686Z,5.92
2018-10-01T22:46:51.893Z,5.37
2018-10-01T22:49:20.066Z,6.25
2018-10-01T22:51:48.178Z,9.38
2018-10-01T22:54:16.378Z,3.65
2018-10-01T22:56:44.470Z,5.83
2018-10-01T22:59:12.554Z,5.05
2018-10-01T23:01:40.670Z,5.05
2018-10-01T23:04:08.854Z,4.92
2018-10-01T23:06:36.962Z,7.17
2018-10-01T23:09:06.553Z,7.80
2018-10-01T23:11:34.866Z,3.92
2018-10-01T23:14:03.063Z,10.23
2018-10-01T23:16:31.193Z,4.22
2018-10-01T23:18:59.282Z,2.40
2018-10-01T23:21:28.641Z,4.87
2018-10-01T23:23:56.802Z,4.92
2018-10-01T23:26:24.918Z,6.30
2018-10-01T23:28:53.130Z,8.78
2018-10-01T23:31:22.250Z,6.37
2018-10-01T23:33:50.435Z,3.45
2018-10-01T23:36:18.642Z,9.93
2018-10-01T23:38:46.822Z,8.80
2018-10-01T23:41:14.953Z,8.48
2018-10-01T23:43:43.110Z,10.72
2018-10-01T23:46:11.226Z,9.03
2018-10-01T23:48:39.323Z,8.08
2018-10-01T23:51:07.427Z,7.50
2018-10-01T23:53:35.633Z,8.93
2018-10-01T23:56:03.833Z,6.85
2018-10-01T23:58:32.009Z,8.90
